Terminal Aerodrome Forecast
Issued by NWS

Home | Current Version | Previous Version | Text Only | Print | Product List | Glossary On
Versions: 1 2 3 4 5 6 7 8 9 10 11 12 13 14 15
901
FTUS41 KPBZ 071730
TAFFKL
TAF
KFKL 071730Z 0718/0818 24011KT P6SM SCT025
     FM081000 24009KT P6SM BKN035
     FM081300 25012G25KT P6SM BKN035
      AMD NOT SKED=

USA.gov is the U.S. government's official web portal to all federal, state and local government web resources and services.